Dodson, Texas
Current Conditions -  °F | °C
As of 3:53 PM on Sunday 21 Dec 2014 (Local Time) from KCDS Reporting Station
Clear Clear  
Wind Chill: 66°   Ceiling: Unl
Heat Index: 66°   Visibility: 10mi
Dew Point: 30°   Wind: 9mph
Humidity: 26%   Direction: 210°SSW
Pressure: 29.64"   Gusts: NA
Location:  34.77°N, 100.02°W
Report Text: KCDS 212153Z AUTO 21008KT 10SM CLR 19/M01 A2964 RMK AO2 SLP028 T01891011
Loading
Personal Weather Stations






























Interactive Weather Map New forecast layout! Learn more

10-Day Weather Forecast

Advertisements
Track Severe Weather on mobile